sensor_id;sensor_type;location;lat;lon;timestamp;temperature;humidity
75442;DHT22;64019;48.312;14.226;2024-03-06T00:00:58;5.10;99.90
75442;DHT22;64019;48.312;14.226;2024-03-06T00:03:24;5.10;99.90
75442;DHT22;64019;48.312;14.226;2024-03-06T00:05:49;5.20;99.90
75442;DHT22;64019;48.312;14.226;2024-03-06T00:08:15;5.20;99.90
75442;DHT22;64019;48.312;14.226;2024-03-06T00:10:41;5.30;99.90
75442;DHT22;64019;48.312;14.226;2024-03-06T00:13:08;5.30;99.90
75442;DHT22;64019;48.312;14.226;2024-03-06T00:15:34;5.40;99.90
75442;DHT22;64019;48.312;14.226;2024-03-06T00:17:59;5.40;99.90
75442;DHT22;64019;48.312;14.226;2024-03-06T00:20:26;5.40;99.90
75442;DHT22;64019;48.312;14.226;2024-03-06T00:22:52;5.40;99.90
75442;DHT22;64019;48.312;14.226;2024-03-06T00:25:18;5.40;99.90
75442;DHT22;64019;48.312;14.226;2024-03-06T00:27:43;5.40;99.90
75442;DHT22;64019;48.312;14.226;2024-03-06T00:30:09;5.40;99.90
75442;DHT22;64019;48.312;14.226;2024-03-06T00:32:36;5.40;99.90
75442;DHT22;64019;48.312;14.226;2024-03-06T00:35:02;5.30;99.90
75442;DHT22;64019;48.312;14.226;2024-03-06T00:37:29;5.40;99.90
75442;DHT22;64019;48.312;14.226;2024-03-06T00:39:55;5.40;99.90
75442;DHT22;64019;48.312;14.226;2024-03-06T00:42:21;5.40;99.90
75442;DHT22;64019;48.312;14.226;2024-03-06T00:44:47;5.40;99.90
75442;DHT22;64019;48.312;14.226;2024-03-06T00:47:12;5.40;99.90
75442;DHT22;64019;48.312;14.226;2024-03-06T00:49:38;5.40;99.90
75442;DHT22;64019;48.312;14.226;2024-03-06T00:52:04;5.30;99.90
75442;DHT22;64019;48.312;14.226;2024-03-06T00:54:30;5.30;99.90
75442;DHT22;64019;48.312;14.226;2024-03-06T00:56:56;5.30;99.90
75442;DHT22;64019;48.312;14.226;2024-03-06T00:59:23;5.30;99.90
75442;DHT22;64019;48.312;14.226;2024-03-06T01:01:48;5.30;99.90
75442;DHT22;64019;48.312;14.226;2024-03-06T01:04:14;5.20;99.90
75442;DHT22;64019;48.312;14.226;2024-03-06T01:06:40;5.20;99.90
75442;DHT22;64019;48.312;14.226;2024-03-06T01:09:05;5.20;99.90
75442;DHT22;64019;48.312;14.226;2024-03-06T01:11:31;5.10;99.90
75442;DHT22;64019;48.312;14.226;2024-03-06T01:13:57;4.90;99.90
75442;DHT22;64019;48.312;14.226;2024-03-06T01:16:22;4.90;99.90
75442;DHT22;64019;48.312;14.226;2024-03-06T01:18:48;4.80;99.90
75442;DHT22;64019;48.312;14.226;2024-03-06T01:21:14;4.80;99.90
75442;DHT22;64019;48.312;14.226;2024-03-06T01:23:40;4.80;99.90
75442;DHT22;64019;48.312;14.226;2024-03-06T01:26:06;4.70;99.90
75442;DHT22;64019;48.312;14.226;2024-03-06T01:28:31;4.70;99.90
75442;DHT22;64019;48.312;14.226;2024-03-06T01:30:57;4.70;99.90
75442;DHT22;64019;48.312;14.226;2024-03-06T01:33:24;4.70;99.90
75442;DHT22;64019;48.312;14.226;2024-03-06T01:35:49;4.60;99.90
75442;DHT22;64019;48.312;14.226;2024-03-06T01:38:15;4.40;99.90
75442;DHT22;64019;48.312;14.226;2024-03-06T01:40:44;4.40;99.90
75442;DHT22;64019;48.312;14.226;2024-03-06T01:43:19;4.40;99.90
75442;DHT22;64019;48.312;14.226;2024-03-06T01:45:45;4.40;99.90
75442;DHT22;64019;48.312;14.226;2024-03-06T01:48:12;4.30;99.90
75442;DHT22;64019;48.312;14.226;2024-03-06T01:50:38;4.30;99.90
75442;DHT22;64019;48.312;14.226;2024-03-06T01:53:04;4.40;99.90
75442;DHT22;64019;48.312;14.226;2024-03-06T01:55:29;4.30;99.90
75442;DHT22;64019;48.312;14.226;2024-03-06T01:57:55;4.30;99.90
75442;DHT22;64019;48.312;14.226;2024-03-06T02:00:22;4.40;99.90
75442;DHT22;64019;48.312;14.226;2024-03-06T02:02:48;4.30;99.90
75442;DHT22;64019;48.312;14.226;2024-03-06T02:05:14;4.30;99.90
75442;DHT22;64019;48.312;14.226;2024-03-06T02:07:40;4.30;99.90
75442;DHT22;64019;48.312;14.226;2024-03-06T02:10:08;4.30;99.90
75442;DHT22;64019;48.312;14.226;2024-03-06T02:12:36;4.30;99.90
75442;DHT22;64019;48.312;14.226;2024-03-06T02:15:02;4.20;99.90
75442;DHT22;64019;48.312;14.226;2024-03-06T02:17:28;4.20;99.90
75442;DHT22;64019;48.312;14.226;2024-03-06T02:19:56;4.20;99.90
75442;DHT22;64019;48.312;14.226;2024-03-06T02:22:23;4.20;99.90
75442;DHT22;64019;48.312;14.226;2024-03-06T02:24:49;4.20;99.90
75442;DHT22;64019;48.312;14.226;2024-03-06T02:27:15;4.20;99.90
75442;DHT22;64019;48.312;14.226;2024-03-06T02:29:42;4.10;99.90
75442;DHT22;64019;48.312;14.226;2024-03-06T02:32:09;4.10;99.90
75442;DHT22;64019;48.312;14.226;2024-03-06T02:34:37;4.10;99.90
75442;DHT22;64019;48.312;14.226;2024-03-06T02:37:03;4.10;99.90
75442;DHT22;64019;48.312;14.226;2024-03-06T02:39:29;4.10;99.90
75442;DHT22;64019;48.312;14.226;2024-03-06T02:41:54;4.10;99.90
75442;DHT22;64019;48.312;14.226;2024-03-06T02:44:20;4.10;99.90
75442;DHT22;64019;48.312;14.226;2024-03-06T02:46:47;4.10;99.90
75442;DHT22;64019;48.312;14.226;2024-03-06T02:49:14;4.10;99.90
75442;DHT22;64019;48.312;14.226;2024-03-06T02:51:40;4.10;99.90
75442;DHT22;64019;48.312;14.226;2024-03-06T02:54:06;4.10;99.90
75442;DHT22;64019;48.312;14.226;2024-03-06T02:56:31;4.10;99.90
75442;DHT22;64019;48.312;14.226;2024-03-06T02:58:57;4.10;99.90
75442;DHT22;64019;48.312;14.226;2024-03-06T03:01:23;4.10;99.90
75442;DHT22;64019;48.312;14.226;2024-03-06T03:03:49;4.10;99.90
75442;DHT22;64019;48.312;14.226;2024-03-06T03:06:16;4.10;99.90
75442;DHT22;64019;48.312;14.226;2024-03-06T03:08:42;4.10;99.90
75442;DHT22;64019;48.312;14.226;2024-03-06T03:11:08;4.10;99.90
75442;DHT22;64019;48.312;14.226;2024-03-06T03:13:33;4.20;99.90
75442;DHT22;64019;48.312;14.226;2024-03-06T03:15:59;4.20;99.90
75442;DHT22;64019;48.312;14.226;2024-03-06T03:18:25;4.10;99.90
75442;DHT22;64019;48.312;14.226;2024-03-06T03:20:50;4.00;99.90
75442;DHT22;64019;48.312;14.226;2024-03-06T03:23:16;4.00;99.90
75442;DHT22;64019;48.312;14.226;2024-03-06T03:25:50;4.10;99.90
75442;DHT22;64019;48.312;14.226;2024-03-06T03:28:15;4.00;99.90
75442;DHT22;64019;48.312;14.226;2024-03-06T03:30:44;4.00;99.90
75442;DHT22;64019;48.312;14.226;2024-03-06T03:33:11;4.00;99.90
75442;DHT22;64019;48.312;14.226;2024-03-06T03:35:36;4.00;99.90
75442;DHT22;64019;48.312;14.226;2024-03-06T03:38:02;4.00;99.90
75442;DHT22;64019;48.312;14.226;2024-03-06T03:40:29;4.00;99.90
75442;DHT22;64019;48.312;14.226;2024-03-06T03:42:54;4.00;99.90
75442;DHT22;64019;48.312;14.226;2024-03-06T03:45:20;3.90;99.90
75442;DHT22;64019;48.312;14.226;2024-03-06T03:47:46;3.90;99.90
75442;DHT22;64019;48.312;14.226;2024-03-06T03:50:11;3.90;99.90
75442;DHT22;64019;48.312;14.226;2024-03-06T03:52:38;3.80;99.90
75442;DHT22;64019;48.312;14.226;2024-03-06T03:55:07;3.80;99.90
75442;DHT22;64019;48.312;14.226;2024-03-06T03:57:33;3.80;99.90
75442;DHT22;64019;48.312;14.226;2024-03-06T03:59:58;3.70;99.90
75442;DHT22;64019;48.312;14.226;2024-03-06T04:02:51;3.70;99.90
75442;DHT22;64019;48.312;14.226;2024-03-06T04:05:50;3.80;99.90
75442;DHT22;64019;48.312;14.226;2024-03-06T04:08:42;3.80;99.90
75442;DHT22;64019;48.312;14.226;2024-03-06T04:11:30;3.90;99.90
75442;DHT22;64019;48.312;14.226;2024-03-06T04:13:58;3.90;99.90
75442;DHT22;64019;48.312;14.226;2024-03-06T04:16:23;3.90;99.90
75442;DHT22;64019;48.312;14.226;2024-03-06T04:18:49;3.90;99.90
75442;DHT22;64019;48.312;14.226;2024-03-06T04:21:15;3.90;99.90
75442;DHT22;64019;48.312;14.226;2024-03-06T04:23:40;3.90;99.90
75442;DHT22;64019;48.312;14.226;2024-03-06T04:26:36;3.90;99.90
75442;DHT22;64019;48.312;14.226;2024-03-06T04:29:45;3.90;99.90
75442;DHT22;64019;48.312;14.226;2024-03-06T04:32:20;4.00;99.90
75442;DHT22;64019;48.312;14.226;2024-03-06T04:34:46;4.10;99.90
75442;DHT22;64019;48.312;14.226;2024-03-06T04:37:12;4.20;99.90
75442;DHT22;64019;48.312;14.226;2024-03-06T04:39:38;4.20;99.90
75442;DHT22;64019;48.312;14.226;2024-03-06T04:42:04;4.30;99.90
75442;DHT22;64019;48.312;14.226;2024-03-06T04:44:33;4.30;99.90
75442;DHT22;64019;48.312;14.226;2024-03-06T04:46:59;4.40;99.90
75442;DHT22;64019;48.312;14.226;2024-03-06T04:49:25;4.40;99.90
75442;DHT22;64019;48.312;14.226;2024-03-06T04:51:51;4.40;99.90
75442;DHT22;64019;48.312;14.226;2024-03-06T04:54:17;4.50;99.90
75442;DHT22;64019;48.312;14.226;2024-03-06T04:56:42;4.60;99.90
75442;DHT22;64019;48.312;14.226;2024-03-06T04:59:08;4.70;99.90
75442;DHT22;64019;48.312;14.226;2024-03-06T05:01:34;4.70;99.90
75442;DHT22;64019;48.312;14.226;2024-03-06T05:04:18;4.70;99.90
75442;DHT22;64019;48.312;14.226;2024-03-06T05:06:56;4.80;99.90
75442;DHT22;64019;48.312;14.226;2024-03-06T05:09:39;4.80;99.90
75442;DHT22;64019;48.312;14.226;2024-03-06T05:12:18;4.80;99.90
75442;DHT22;64019;48.312;14.226;2024-03-06T05:14:52;4.80;99.90
75442;DHT22;64019;48.312;14.226;2024-03-06T05:17:21;4.80;99.90
75442;DHT22;64019;48.312;14.226;2024-03-06T05:19:49;4.80;99.90
75442;DHT22;64019;48.312;14.226;2024-03-06T05:22:16;4.80;99.90
75442;DHT22;64019;48.312;14.226;2024-03-06T05:24:42;4.80;99.90
75442;DHT22;64019;48.312;14.226;2024-03-06T05:27:09;4.90;99.90
75442;DHT22;64019;48.312;14.226;2024-03-06T05:29:36;4.90;99.90
75442;DHT22;64019;48.312;14.226;2024-03-06T05:32:03;4.90;99.90
75442;DHT22;64019;48.312;14.226;2024-03-06T05:34:29;5.00;99.90
75442;DHT22;64019;48.312;14.226;2024-03-06T05:36:55;5.00;99.90
75442;DHT22;64019;48.312;14.226;2024-03-06T05:39:21;5.00;99.90
75442;DHT22;64019;48.312;14.226;2024-03-06T05:41:47;5.00;99.90
75442;DHT22;64019;48.312;14.226;2024-03-06T05:44:13;5.00;99.90
75442;DHT22;64019;48.312;14.226;2024-03-06T05:46:38;5.00;99.90
75442;DHT22;64019;48.312;14.226;2024-03-06T05:49:04;5.00;99.90
75442;DHT22;64019;48.312;14.226;2024-03-06T05:51:30;5.10;99.90
75442;DHT22;64019;48.312;14.226;2024-03-06T05:53:56;5.10;99.90
75442;DHT22;64019;48.312;14.226;2024-03-06T05:56:22;5.10;99.90
75442;DHT22;64019;48.312;14.226;2024-03-06T05:58:48;5.10;99.90
75442;DHT22;64019;48.312;14.226;2024-03-06T06:01:17;5.20;99.90
75442;DHT22;64019;48.312;14.226;2024-03-06T06:03:47;5.20;99.90
75442;DHT22;64019;48.312;14.226;2024-03-06T06:06:17;5.30;99.90
75442;DHT22;64019;48.312;14.226;2024-03-06T06:08:44;5.30;99.90
75442;DHT22;64019;48.312;14.226;2024-03-06T06:11:11;5.30;99.90
75442;DHT22;64019;48.312;14.226;2024-03-06T06:13:38;5.40;99.90
75442;DHT22;64019;48.312;14.226;2024-03-06T06:16:05;5.40;99.90
75442;DHT22;64019;48.312;14.226;2024-03-06T06:18:31;5.50;99.90
75442;DHT22;64019;48.312;14.226;2024-03-06T06:20:58;5.50;99.90
75442;DHT22;64019;48.312;14.226;2024-03-06T06:23:23;5.60;99.90
75442;DHT22;64019;48.312;14.226;2024-03-06T06:25:49;5.70;99.90
75442;DHT22;64019;48.312;14.226;2024-03-06T06:28:15;5.80;99.90
75442;DHT22;64019;48.312;14.226;2024-03-06T06:30:41;5.80;99.90
75442;DHT22;64019;48.312;14.226;2024-03-06T06:33:07;5.90;99.90
75442;DHT22;64019;48.312;14.226;2024-03-06T06:35:34;5.90;99.90
75442;DHT22;64019;48.312;14.226;2024-03-06T06:38:00;6.00;99.90
75442;DHT22;64019;48.312;14.226;2024-03-06T06:40:26;6.10;99.90
75442;DHT22;64019;48.312;14.226;2024-03-06T06:42:54;6.20;99.90
75442;DHT22;64019;48.312;14.226;2024-03-06T06:45:20;6.30;99.90
75442;DHT22;64019;48.312;14.226;2024-03-06T06:47:48;6.30;99.90
75442;DHT22;64019;48.312;14.226;2024-03-06T06:50:14;6.40;99.90
75442;DHT22;64019;48.312;14.226;2024-03-06T06:52:41;6.50;99.90
75442;DHT22;64019;48.312;14.226;2024-03-06T06:55:07;6.50;99.90
75442;DHT22;64019;48.312;14.226;2024-03-06T06:57:34;6.50;99.90
75442;DHT22;64019;48.312;14.226;2024-03-06T07:00:01;6.40;99.90
75442;DHT22;64019;48.312;14.226;2024-03-06T07:02:31;6.40;99.90
75442;DHT22;64019;48.312;14.226;2024-03-06T07:04:57;6.30;99.90
75442;DHT22;64019;48.312;14.226;2024-03-06T07:07:24;6.30;99.90
75442;DHT22;64019;48.312;14.226;2024-03-06T07:10:02;6.40;99.90
75442;DHT22;64019;48.312;14.226;2024-03-06T07:12:48;6.40;99.90
75442;DHT22;64019;48.312;14.226;2024-03-06T07:15:19;6.40;99.90
75442;DHT22;64019;48.312;14.226;2024-03-06T07:17:46;6.40;99.90
75442;DHT22;64019;48.312;14.226;2024-03-06T07:20:12;6.50;99.90
75442;DHT22;64019;48.312;14.226;2024-03-06T07:22:39;6.60;99.90
75442;DHT22;64019;48.312;14.226;2024-03-06T07:25:06;6.60;99.90
75442;DHT22;64019;48.312;14.226;2024-03-06T07:27:31;6.60;99.90
75442;DHT22;64019;48.312;14.226;2024-03-06T07:29:57;6.60;99.90
75442;DHT22;64019;48.312;14.226;2024-03-06T07:32:23;6.60;99.90
75442;DHT22;64019;48.312;14.226;2024-03-06T07:34:49;6.70;99.90
75442;DHT22;64019;48.312;14.226;2024-03-06T07:37:14;6.80;99.90
75442;DHT22;64019;48.312;14.226;2024-03-06T07:39:40;6.90;99.90
75442;DHT22;64019;48.312;14.226;2024-03-06T07:42:06;6.90;99.90
75442;DHT22;64019;48.312;14.226;2024-03-06T07:44:32;6.90;99.90
75442;DHT22;64019;48.312;14.226;2024-03-06T07:46:57;6.90;99.90
75442;DHT22;64019;48.312;14.226;2024-03-06T07:49:23;7.00;99.90
75442;DHT22;64019;48.312;14.226;2024-03-06T07:51:49;7.10;99.90
75442;DHT22;64019;48.312;14.226;2024-03-06T07:54:15;7.10;99.90
75442;DHT22;64019;48.312;14.226;2024-03-06T07:56:41;7.20;99.90
75442;DHT22;64019;48.312;14.226;2024-03-06T07:59:06;7.20;99.90
75442;DHT22;64019;48.312;14.226;2024-03-06T08:01:32;7.30;99.90
75442;DHT22;64019;48.312;14.226;2024-03-06T08:03:58;7.50;99.90
75442;DHT22;64019;48.312;14.226;2024-03-06T08:06:24;7.40;99.90
75442;DHT22;64019;48.312;14.226;2024-03-06T08:08:50;7.50;99.90
75442;DHT22;64019;48.312;14.226;2024-03-06T08:11:17;7.60;99.90
75442;DHT22;64019;48.312;14.226;2024-03-06T08:13:43;7.70;99.90
75442;DHT22;64019;48.312;14.226;2024-03-06T08:16:09;7.80;99.90
75442;DHT22;64019;48.312;14.226;2024-03-06T08:18:36;7.90;99.90
75442;DHT22;64019;48.312;14.226;2024-03-06T08:21:02;8.00;99.90
75442;DHT22;64019;48.312;14.226;2024-03-06T08:23:30;8.00;99.90
75442;DHT22;64019;48.312;14.226;2024-03-06T08:25:56;8.10;99.90
75442;DHT22;64019;48.312;14.226;2024-03-06T08:28:22;8.20;99.90
75442;DHT22;64019;48.312;14.226;2024-03-06T08:30:47;8.20;99.90
75442;DHT22;64019;48.312;14.226;2024-03-06T08:33:13;8.30;99.90
75442;DHT22;64019;48.312;14.226;2024-03-06T08:35:39;8.30;99.90
75442;DHT22;64019;48.312;14.226;2024-03-06T08:38:05;8.30;99.90
75442;DHT22;64019;48.312;14.226;2024-03-06T08:40:32;8.40;99.90
75442;DHT22;64019;48.312;14.226;2024-03-06T08:42:57;8.40;99.90
75442;DHT22;64019;48.312;14.226;2024-03-06T08:45:24;8.50;99.90
75442;DHT22;64019;48.312;14.226;2024-03-06T08:47:50;8.50;99.90
75442;DHT22;64019;48.312;14.226;2024-03-06T08:50:16;8.50;99.90
75442;DHT22;64019;48.312;14.226;2024-03-06T08:52:50;8.50;99.90
75442;DHT22;64019;48.312;14.226;2024-03-06T08:55:31;8.50;99.90
75442;DHT22;64019;48.312;14.226;2024-03-06T08:58:10;8.50;99.90
75442;DHT22;64019;48.312;14.226;2024-03-06T09:00:46;8.50;99.90
75442;DHT22;64019;48.312;14.226;2024-03-06T09:03:14;8.60;99.90
75442;DHT22;64019;48.312;14.226;2024-03-06T09:05:41;8.50;99.90
75442;DHT22;64019;48.312;14.226;2024-03-06T09:08:07;8.50;99.90
75442;DHT22;64019;48.312;14.226;2024-03-06T09:10:34;8.50;99.90
75442;DHT22;64019;48.312;14.226;2024-03-06T09:13:00;8.50;99.90
75442;DHT22;64019;48.312;14.226;2024-03-06T09:15:26;8.60;99.90
75442;DHT22;64019;48.312;14.226;2024-03-06T09:17:51;8.60;99.90
75442;DHT22;64019;48.312;14.226;2024-03-06T09:20:17;8.50;99.90
75442;DHT22;64019;48.312;14.226;2024-03-06T09:22:43;8.60;99.90
75442;DHT22;64019;48.312;14.226;2024-03-06T09:25:09;8.60;99.90
75442;DHT22;64019;48.312;14.226;2024-03-06T09:27:35;8.60;99.90
75442;DHT22;64019;48.312;14.226;2024-03-06T09:30:01;8.60;99.90
75442;DHT22;64019;48.312;14.226;2024-03-06T09:32:28;8.70;99.90
75442;DHT22;64019;48.312;14.226;2024-03-06T09:34:53;8.70;99.90
75442;DHT22;64019;48.312;14.226;2024-03-06T09:37:19;8.70;99.90
75442;DHT22;64019;48.312;14.226;2024-03-06T09:39:45;8.70;99.90
75442;DHT22;64019;48.312;14.226;2024-03-06T09:42:15;8.70;99.90
75442;DHT22;64019;48.312;14.226;2024-03-06T09:44:41;8.70;99.90
75442;DHT22;64019;48.312;14.226;2024-03-06T09:47:07;8.60;99.90
75442;DHT22;64019;48.312;14.226;2024-03-06T09:49:35;8.70;99.90
75442;DHT22;64019;48.312;14.226;2024-03-06T09:52:02;8.70;99.90
75442;DHT22;64019;48.312;14.226;2024-03-06T09:54:29;8.70;99.90
75442;DHT22;64019;48.312;14.226;2024-03-06T09:56:56;8.70;99.90
75442;DHT22;64019;48.312;14.226;2024-03-06T09:59:23;8.80;99.90
75442;DHT22;64019;48.312;14.226;2024-03-06T10:01:59;8.80;99.90
75442;DHT22;64019;48.312;14.226;2024-03-06T10:04:28;8.80;99.90
75442;DHT22;64019;48.312;14.226;2024-03-06T10:06:56;8.90;99.90
75442;DHT22;64019;48.312;14.226;2024-03-06T10:09:22;8.90;99.90
75442;DHT22;64019;48.312;14.226;2024-03-06T10:11:48;9.00;99.90
75442;DHT22;64019;48.312;14.226;2024-03-06T10:14:27;9.00;99.90
75442;DHT22;64019;48.312;14.226;2024-03-06T10:17:01;9.10;99.90
75442;DHT22;64019;48.312;14.226;2024-03-06T10:19:31;9.20;99.90
75442;DHT22;64019;48.312;14.226;2024-03-06T10:21:58;9.30;99.90
75442;DHT22;64019;48.312;14.226;2024-03-06T10:24:26;9.40;99.90
75442;DHT22;64019;48.312;14.226;2024-03-06T10:26:54;9.50;99.90
75442;DHT22;64019;48.312;14.226;2024-03-06T10:29:22;9.60;99.90
75442;DHT22;64019;48.312;14.226;2024-03-06T10:31:58;9.70;99.90
75442;DHT22;64019;48.312;14.226;2024-03-06T10:34:25;9.70;99.90
75442;DHT22;64019;48.312;14.226;2024-03-06T10:37:11;9.80;99.90
75442;DHT22;64019;48.312;14.226;2024-03-06T10:39:42;9.90;99.90
75442;DHT22;64019;48.312;14.226;2024-03-06T10:42:13;9.80;99.90
75442;DHT22;64019;48.312;14.226;2024-03-06T10:44:47;9.90;99.90
75442;DHT22;64019;48.312;14.226;2024-03-06T10:47:19;9.90;99.90
75442;DHT22;64019;48.312;14.226;2024-03-06T10:49:45;9.90;99.90
75442;DHT22;64019;48.312;14.226;2024-03-06T10:52:12;9.90;99.90
75442;DHT22;64019;48.312;14.226;2024-03-06T10:54:41;9.90;99.90
75442;DHT22;64019;48.312;14.226;2024-03-06T10:57:10;9.90;99.90
75442;DHT22;64019;48.312;14.226;2024-03-06T10:59:36;10.00;99.90
75442;DHT22;64019;48.312;14.226;2024-03-06T11:02:02;10.10;99.90
75442;DHT22;64019;48.312;14.226;2024-03-06T11:04:29;10.20;99.90
75442;DHT22;64019;48.312;14.226;2024-03-06T11:06:57;10.20;99.90
75442;DHT22;64019;48.312;14.226;2024-03-06T11:09:25;10.30;99.90
75442;DHT22;64019;48.312;14.226;2024-03-06T11:11:52;10.30;99.90
75442;DHT22;64019;48.312;14.226;2024-03-06T11:14:21;10.40;99.90
75442;DHT22;64019;48.312;14.226;2024-03-06T11:17:06;10.40;99.90
75442;DHT22;64019;48.312;14.226;2024-03-06T11:28:31;10.50;99.90
75442;DHT22;64019;48.312;14.226;2024-03-06T11:31:02;10.50;99.90
75442;DHT22;64019;48.312;14.226;2024-03-06T11:33:40;10.40;99.90
75442;DHT22;64019;48.312;14.226;2024-03-06T11:41:22;10.30;99.90
75442;DHT22;64019;48.312;14.226;2024-03-06T11:43:49;10.30;99.90
75442;DHT22;64019;48.312;14.226;2024-03-06T11:46:22;10.30;99.90
75442;DHT22;64019;48.312;14.226;2024-03-06T11:48:53;10.30;99.90
75442;DHT22;64019;48.312;14.226;2024-03-06T11:51:19;10.40;99.90
75442;DHT22;64019;48.312;14.226;2024-03-06T11:53:45;10.60;99.90
75442;DHT22;64019;48.312;14.226;2024-03-06T11:56:11;10.70;99.90
75442;DHT22;64019;48.312;14.226;2024-03-06T11:58:37;10.80;99.90
75442;DHT22;64019;48.312;14.226;2024-03-06T12:01:03;10.90;99.90
75442;DHT22;64019;48.312;14.226;2024-03-06T12:03:30;11.10;99.90
75442;DHT22;64019;48.312;14.226;2024-03-06T12:05:56;11.10;99.90
75442;DHT22;64019;48.312;14.226;2024-03-06T12:08:21;11.20;99.90
75442;DHT22;64019;48.312;14.226;2024-03-06T12:10:47;11.10;99.90
75442;DHT22;64019;48.312;14.226;2024-03-06T12:13:13;11.20;99.90
75442;DHT22;64019;48.312;14.226;2024-03-06T12:15:42;11.30;99.90
75442;DHT22;64019;48.312;14.226;2024-03-06T12:18:08;11.40;99.90
75442;DHT22;64019;48.312;14.226;2024-03-06T12:20:34;11.30;99.90
75442;DHT22;64019;48.312;14.226;2024-03-06T12:22:59;11.30;99.90
75442;DHT22;64019;48.312;14.226;2024-03-06T12:25:26;11.40;99.90
75442;DHT22;64019;48.312;14.226;2024-03-06T12:27:54;11.40;99.90
75442;DHT22;64019;48.312;14.226;2024-03-06T12:30:21;11.40;99.90
75442;DHT22;64019;48.312;14.226;2024-03-06T12:33:01;11.40;99.90
75442;DHT22;64019;48.312;14.226;2024-03-06T12:35:30;11.50;99.90
75442;DHT22;64019;48.312;14.226;2024-03-06T12:37:57;11.50;99.90
75442;DHT22;64019;48.312;14.226;2024-03-06T12:40:22;11.60;99.90
75442;DHT22;64019;48.312;14.226;2024-03-06T12:42:48;11.60;99.90
75442;DHT22;64019;48.312;14.226;2024-03-06T12:45:15;11.50;99.90
75442;DHT22;64019;48.312;14.226;2024-03-06T12:47:42;11.40;99.90
75442;DHT22;64019;48.312;14.226;2024-03-06T12:50:09;11.40;99.90
75442;DHT22;64019;48.312;14.226;2024-03-06T12:52:36;11.40;99.90
75442;DHT22;64019;48.312;14.226;2024-03-06T12:55:02;11.30;99.90
75442;DHT22;64019;48.312;14.226;2024-03-06T12:57:31;11.30;99.90
75442;DHT22;64019;48.312;14.226;2024-03-06T12:59:57;11.30;99.90
75442;DHT22;64019;48.312;14.226;2024-03-06T13:02:22;11.20;99.90
75442;DHT22;64019;48.312;14.226;2024-03-06T13:04:48;11.30;99.90
75442;DHT22;64019;48.312;14.226;2024-03-06T13:07:14;11.30;99.90
75442;DHT22;64019;48.312;14.226;2024-03-06T13:09:40;11.20;99.90
75442;DHT22;64019;48.312;14.226;2024-03-06T13:12:06;11.10;99.90
75442;DHT22;64019;48.312;14.226;2024-03-06T13:14:32;11.10;99.90
75442;DHT22;64019;48.312;14.226;2024-03-06T13:16:59;11.10;99.90
75442;DHT22;64019;48.312;14.226;2024-03-06T13:19:24;11.10;99.90
75442;DHT22;64019;48.312;14.226;2024-03-06T13:21:50;11.00;99.90
75442;DHT22;64019;48.312;14.226;2024-03-06T13:24:16;11.00;99.90
75442;DHT22;64019;48.312;14.226;2024-03-06T13:26:42;11.00;99.90
75442;DHT22;64019;48.312;14.226;2024-03-06T13:29:07;11.00;99.90
75442;DHT22;64019;48.312;14.226;2024-03-06T13:31:33;10.90;99.90
75442;DHT22;64019;48.312;14.226;2024-03-06T13:34:02;10.80;99.90
75442;DHT22;64019;48.312;14.226;2024-03-06T13:36:29;10.70;99.90
75442;DHT22;64019;48.312;14.226;2024-03-06T13:38:55;10.60;99.90
75442;DHT22;64019;48.312;14.226;2024-03-06T13:41:21;10.60;99.90
75442;DHT22;64019;48.312;14.226;2024-03-06T13:43:47;10.60;99.90
75442;DHT22;64019;48.312;14.226;2024-03-06T13:46:12;10.60;99.90
75442;DHT22;64019;48.312;14.226;2024-03-06T13:48:38;10.60;99.90
75442;DHT22;64019;48.312;14.226;2024-03-06T13:51:04;10.60;99.90
75442;DHT22;64019;48.312;14.226;2024-03-06T13:53:30;10.50;99.90
75442;DHT22;64019;48.312;14.226;2024-03-06T13:55:56;10.50;99.90
75442;DHT22;64019;48.312;14.226;2024-03-06T13:58:22;10.50;99.90
75442;DHT22;64019;48.312;14.226;2024-03-06T14:00:48;10.40;99.90
75442;DHT22;64019;48.312;14.226;2024-03-06T14:03:14;10.40;99.90
75442;DHT22;64019;48.312;14.226;2024-03-06T14:05:40;10.50;99.90
75442;DHT22;64019;48.312;14.226;2024-03-06T14:08:06;10.50;99.90
75442;DHT22;64019;48.312;14.226;2024-03-06T14:10:32;10.50;99.90
75442;DHT22;64019;48.312;14.226;2024-03-06T14:12:59;10.50;99.90
75442;DHT22;64019;48.312;14.226;2024-03-06T14:15:25;10.50;99.90
75442;DHT22;64019;48.312;14.226;2024-03-06T14:17:52;10.40;99.90
75442;DHT22;64019;48.312;14.226;2024-03-06T14:20:20;10.40;99.90
75442;DHT22;64019;48.312;14.226;2024-03-06T14:22:45;10.40;99.90
75442;DHT22;64019;48.312;14.226;2024-03-06T14:25:11;10.40;99.90
75442;DHT22;64019;48.312;14.226;2024-03-06T14:27:37;10.50;99.90
75442;DHT22;64019;48.312;14.226;2024-03-06T14:30:04;10.60;99.90
75442;DHT22;64019;48.312;14.226;2024-03-06T14:32:33;10.60;99.90
75442;DHT22;64019;48.312;14.226;2024-03-06T14:34:58;10.50;99.90
75442;DHT22;64019;48.312;14.226;2024-03-06T14:37:24;10.50;99.90
75442;DHT22;64019;48.312;14.226;2024-03-06T14:39:50;10.50;99.90
75442;DHT22;64019;48.312;14.226;2024-03-06T14:42:18;10.60;99.90
75442;DHT22;64019;48.312;14.226;2024-03-06T14:44:44;10.60;99.90
75442;DHT22;64019;48.312;14.226;2024-03-06T14:47:10;10.60;99.90
75442;DHT22;64019;48.312;14.226;2024-03-06T14:49:36;10.50;99.90
75442;DHT22;64019;48.312;14.226;2024-03-06T14:52:04;10.40;99.90
75442;DHT22;64019;48.312;14.226;2024-03-06T14:54:32;10.30;99.90
75442;DHT22;64019;48.312;14.226;2024-03-06T14:56:57;10.20;99.90
75442;DHT22;64019;48.312;14.226;2024-03-06T14:59:23;10.20;99.90
75442;DHT22;64019;48.312;14.226;2024-03-06T15:01:49;10.10;99.90
75442;DHT22;64019;48.312;14.226;2024-03-06T15:04:17;10.10;99.90
75442;DHT22;64019;48.312;14.226;2024-03-06T15:06:42;10.00;99.90
75442;DHT22;64019;48.312;14.226;2024-03-06T15:09:08;10.00;99.90
75442;DHT22;64019;48.312;14.226;2024-03-06T15:11:41;9.90;99.90
75442;DHT22;64019;48.312;14.226;2024-03-06T15:14:07;9.90;99.90
75442;DHT22;64019;48.312;14.226;2024-03-06T15:16:34;9.90;99.90
75442;DHT22;64019;48.312;14.226;2024-03-06T15:19:00;9.90;99.90
75442;DHT22;64019;48.312;14.226;2024-03-06T15:21:29;9.80;99.90
75442;DHT22;64019;48.312;14.226;2024-03-06T15:23:56;9.80;99.90
75442;DHT22;64019;48.312;14.226;2024-03-06T15:26:22;9.80;99.90
75442;DHT22;64019;48.312;14.226;2024-03-06T15:28:47;9.80;99.90
75442;DHT22;64019;48.312;14.226;2024-03-06T15:31:14;9.80;99.90
75442;DHT22;64019;48.312;14.226;2024-03-06T15:33:39;9.80;99.90
75442;DHT22;64019;48.312;14.226;2024-03-06T15:36:05;9.80;99.90
75442;DHT22;64019;48.312;14.226;2024-03-06T15:38:31;9.90;99.90
75442;DHT22;64019;48.312;14.226;2024-03-06T15:40:57;9.90;99.90
75442;DHT22;64019;48.312;14.226;2024-03-06T15:43:23;9.90;99.90